sensor_id;sensor_type;location;lat;lon;timestamp;P1;durP1;ratioP1;P2;durP2;ratioP2
38113;SDS011;23926;53.222;6.354;2023-10-08T00:01:17;114.78;;;109.93;;
38113;SDS011;23926;53.222;6.354;2023-10-08T00:03:44;165.00;;;158.13;;
38113;SDS011;23926;53.222;6.354;2023-10-08T00:06:16;139.65;;;133.77;;
38113;SDS011;23926;53.222;6.354;2023-10-08T00:08:44;110.53;;;105.93;;
38113;SDS011;23926;53.222;6.354;2023-10-08T00:11:10;92.57;;;88.53;;
38113;SDS011;23926;53.222;6.354;2023-10-08T00:13:36;92.57;;;88.68;;
38113;SDS011;23926;53.222;6.354;2023-10-08T00:16:08;71.45;;;68.40;;
38113;SDS011;23926;53.222;6.354;2023-10-08T00:18:42;44.38;;;42.33;;
38113;SDS011;23926;53.222;6.354;2023-10-08T00:21:20;77.38;;;73.95;;
38113;SDS011;23926;53.222;6.354;2023-10-08T00:23:58;73.18;;;69.88;;
38113;SDS011;23926;53.222;6.354;2023-10-08T00:26:23;18.75;;;17.80;;
38113;SDS011;23926;53.222;6.354;2023-10-08T00:29:00;13.40;;;12.75;;
38113;SDS011;23926;53.222;6.354;2023-10-08T00:31:31;22.08;;;21.10;;
38113;SDS011;23926;53.222;6.354;2023-10-08T00:34:02;25.65;;;23.95;;
38113;SDS011;23926;53.222;6.354;2023-10-08T00:36:30;54.70;;;52.10;;
38113;SDS011;23926;53.222;6.354;2023-10-08T00:38:55;56.47;;;53.92;;
38113;SDS011;23926;53.222;6.354;2023-10-08T00:41:25;35.67;;;34.08;;
38113;SDS011;23926;53.222;6.354;2023-10-08T00:43:55;13.95;;;13.38;;
38113;SDS011;23926;53.222;6.354;2023-10-08T00:46:26;7.53;;;7.18;;
38113;SDS011;23926;53.222;6.354;2023-10-08T00:48:57;16.10;;;15.25;;
38113;SDS011;23926;53.222;6.354;2023-10-08T00:51:35;35.78;;;34.22;;
38113;SDS011;23926;53.222;6.354;2023-10-08T00:54:06;52.35;;;49.97;;
38113;SDS011;23926;53.222;6.354;2023-10-08T00:56:34;16.67;;;15.85;;
38113;SDS011;23926;53.222;6.354;2023-10-08T00:59:12;19.92;;;18.90;;
38113;SDS011;23926;53.222;6.354;2023-10-08T01:01:43;43.72;;;41.72;;
38113;SDS011;23926;53.222;6.354;2023-10-08T01:04:33;54.85;;;51.85;;
38113;SDS011;23926;53.222;6.354;2023-10-08T01:07:03;82.13;;;78.25;;
38113;SDS011;23926;53.222;6.354;2023-10-08T01:09:40;55.58;;;53.05;;
38113;SDS011;23926;53.222;6.354;2023-10-08T01:12:08;70.82;;;67.60;;
38113;SDS011;23926;53.222;6.354;2023-10-08T01:14:40;103.60;;;98.32;;
38113;SDS011;23926;53.222;6.354;2023-10-08T01:17:12;118.65;;;112.57;;
38113;SDS011;23926;53.222;6.354;2023-10-08T01:19:44;99.60;;;95.10;;
38113;SDS011;23926;53.222;6.354;2023-10-08T01:22:16;17.63;;;16.83;;
38113;SDS011;23926;53.222;6.354;2023-10-08T01:24:43;25.95;;;24.77;;
38113;SDS011;23926;53.222;6.354;2023-10-08T01:27:10;54.55;;;52.10;;
38113;SDS011;23926;53.222;6.354;2023-10-08T01:29:37;71.03;;;67.82;;
38113;SDS011;23926;53.222;6.354;2023-10-08T01:32:04;95.63;;;91.38;;
38113;SDS011;23926;53.222;6.354;2023-10-08T01:34:35;116.25;;;110.95;;
38113;SDS011;23926;53.222;6.354;2023-10-08T01:37:01;137.30;;;131.02;;
38113;SDS011;23926;53.222;6.354;2023-10-08T01:39:33;141.50;;;134.93;;
38113;SDS011;23926;53.222;6.354;2023-10-08T01:42:00;186.55;;;178.00;;
38113;SDS011;23926;53.222;6.354;2023-10-08T01:44:26;203.05;;;193.65;;
38113;SDS011;23926;53.222;6.354;2023-10-08T01:46:52;152.90;;;145.98;;
38113;SDS011;23926;53.222;6.354;2023-10-08T01:49:17;163.23;;;155.98;;
38113;SDS011;23926;53.222;6.354;2023-10-08T01:51:47;141.98;;;135.75;;
38113;SDS011;23926;53.222;6.354;2023-10-08T01:54:13;130.07;;;124.28;;
38113;SDS011;23926;53.222;6.354;2023-10-08T01:56:40;162.80;;;155.23;;
38113;SDS011;23926;53.222;6.354;2023-10-08T01:59:13;130.35;;;124.65;;
38113;SDS011;23926;53.222;6.354;2023-10-08T02:01:40;136.20;;;130.13;;
38113;SDS011;23926;53.222;6.354;2023-10-08T02:04:07;116.30;;;111.22;;
38113;SDS011;23926;53.222;6.354;2023-10-08T02:06:33;127.57;;;121.90;;
38113;SDS011;23926;53.222;6.354;2023-10-08T02:08:59;153.35;;;146.32;;
38113;SDS011;23926;53.222;6.354;2023-10-08T02:11:46;124.55;;;118.95;;
38113;SDS011;23926;53.222;6.354;2023-10-08T02:14:16;122.67;;;116.87;;
38113;SDS011;23926;53.222;6.354;2023-10-08T02:16:45;137.57;;;131.13;;
38113;SDS011;23926;53.222;6.354;2023-10-08T02:19:10;103.38;;;98.57;;
38113;SDS011;23926;53.222;6.354;2023-10-08T02:21:36;148.80;;;141.43;;
38113;SDS011;23926;53.222;6.354;2023-10-08T02:24:05;162.52;;;154.88;;
38113;SDS011;23926;53.222;6.354;2023-10-08T02:26:32;132.95;;;126.85;;
38113;SDS011;23926;53.222;6.354;2023-10-08T02:29:00;99.40;;;95.05;;
38113;SDS011;23926;53.222;6.354;2023-10-08T02:31:25;150.07;;;142.68;;
38113;SDS011;23926;53.222;6.354;2023-10-08T02:33:51;162.55;;;155.00;;
38113;SDS011;23926;53.222;6.354;2023-10-08T02:36:16;171.30;;;162.98;;
38113;SDS011;23926;53.222;6.354;2023-10-08T02:38:42;159.63;;;152.13;;
38113;SDS011;23926;53.222;6.354;2023-10-08T02:41:07;143.45;;;136.85;;
38113;SDS011;23926;53.222;6.354;2023-10-08T02:43:33;153.60;;;146.52;;
38113;SDS011;23926;53.222;6.354;2023-10-08T02:46:02;156.23;;;148.98;;
38113;SDS011;23926;53.222;6.354;2023-10-08T02:48:32;138.80;;;132.43;;
38113;SDS011;23926;53.222;6.354;2023-10-08T02:50:59;170.38;;;162.52;;
38113;SDS011;23926;53.222;6.354;2023-10-08T02:53:36;189.50;;;180.60;;
38113;SDS011;23926;53.222;6.354;2023-10-08T02:56:01;169.80;;;161.70;;
38113;SDS011;23926;53.222;6.354;2023-10-08T02:58:36;167.25;;;159.50;;
38113;SDS011;23926;53.222;6.354;2023-10-08T03:01:02;116.70;;;111.40;;
38113;SDS011;23926;53.222;6.354;2023-10-08T03:03:28;120.05;;;114.63;;
38113;SDS011;23926;53.222;6.354;2023-10-08T03:05:54;159.27;;;151.90;;
38113;SDS011;23926;53.222;6.354;2023-10-08T03:08:21;227.43;;;216.00;;
38113;SDS011;23926;53.222;6.354;2023-10-08T03:10:48;226.02;;;214.85;;
38113;SDS011;23926;53.222;6.354;2023-10-08T03:13:29;213.68;;;203.30;;
38113;SDS011;23926;53.222;6.354;2023-10-08T03:15:55;179.82;;;171.40;;
38113;SDS011;23926;53.222;6.354;2023-10-08T03:18:27;232.52;;;221.57;;
38113;SDS011;23926;53.222;6.354;2023-10-08T03:21:04;175.98;;;167.90;;
38113;SDS011;23926;53.222;6.354;2023-10-08T03:23:31;167.40;;;159.63;;
38113;SDS011;23926;53.222;6.354;2023-10-08T03:26:02;178.68;;;170.27;;
38113;SDS011;23926;53.222;6.354;2023-10-08T03:28:53;150.05;;;143.10;;
38113;SDS011;23926;53.222;6.354;2023-10-08T03:31:22;166.13;;;158.27;;
38113;SDS011;23926;53.222;6.354;2023-10-08T03:34:08;168.30;;;160.23;;
38113;SDS011;23926;53.222;6.354;2023-10-08T03:36:37;179.80;;;171.25;;
38113;SDS011;23926;53.222;6.354;2023-10-08T03:39:09;189.25;;;179.93;;
38113;SDS011;23926;53.222;6.354;2023-10-08T03:41:38;229.05;;;217.15;;
38113;SDS011;23926;53.222;6.354;2023-10-08T03:44:05;163.88;;;156.13;;
38113;SDS011;23926;53.222;6.354;2023-10-08T03:46:37;190.68;;;181.13;;
38113;SDS011;23926;53.222;6.354;2023-10-08T03:49:10;183.50;;;174.52;;
38113;SDS011;23926;53.222;6.354;2023-10-08T03:52:02;165.55;;;157.85;;
38113;SDS011;23926;53.222;6.354;2023-10-08T03:54:27;95.03;;;90.82;;
38113;SDS011;23926;53.222;6.354;2023-10-08T03:56:59;132.90;;;126.65;;
38113;SDS011;23926;53.222;6.354;2023-10-08T03:59:26;190.93;;;180.63;;
38113;SDS011;23926;53.222;6.354;2023-10-08T04:01:55;217.32;;;205.82;;
38113;SDS011;23926;53.222;6.354;2023-10-08T04:04:24;205.52;;;194.23;;
38113;SDS011;23926;53.222;6.354;2023-10-08T04:09:51;105.82;;;101.07;;
38113;SDS011;23926;53.222;6.354;2023-10-08T04:12:29;50.70;;;48.13;;
38113;SDS011;23926;53.222;6.354;2023-10-08T04:14:57;64.72;;;61.80;;
38113;SDS011;23926;53.222;6.354;2023-10-08T04:17:22;67.57;;;64.15;;
38113;SDS011;23926;53.222;6.354;2023-10-08T04:19:48;62.30;;;59.50;;
38113;SDS011;23926;53.222;6.354;2023-10-08T04:22:13;112.60;;;107.30;;
38113;SDS011;23926;53.222;6.354;2023-10-08T04:24:43;185.10;;;175.75;;
38113;SDS011;23926;53.222;6.354;2023-10-08T04:27:09;119.95;;;114.43;;
38113;SDS011;23926;53.222;6.354;2023-10-08T04:29:34;99.10;;;94.35;;
38113;SDS011;23926;53.222;6.354;2023-10-08T04:32:02;29.88;;;28.45;;
38113;SDS011;23926;53.222;6.354;2023-10-08T04:34:37;99.50;;;94.20;;
38113;SDS011;23926;53.222;6.354;2023-10-08T04:37:03;142.77;;;136.07;;
38113;SDS011;23926;53.222;6.354;2023-10-08T04:39:37;136.38;;;130.02;;
38113;SDS011;23926;53.222;6.354;2023-10-08T04:42:04;177.15;;;168.32;;
38113;SDS011;23926;53.222;6.354;2023-10-08T04:44:37;208.23;;;198.38;;
38113;SDS011;23926;53.222;6.354;2023-10-08T04:47:06;152.85;;;145.43;;
38113;SDS011;23926;53.222;6.354;2023-10-08T04:49:52;106.32;;;101.57;;
38113;SDS011;23926;53.222;6.354;2023-10-08T04:52:18;55.60;;;52.95;;
38113;SDS011;23926;53.222;6.354;2023-10-08T04:54:45;90.35;;;86.10;;
38113;SDS011;23926;53.222;6.354;2023-10-08T04:57:17;106.80;;;101.82;;
38113;SDS011;23926;53.222;6.354;2023-10-08T04:59:44;125.32;;;119.30;;
38113;SDS011;23926;53.222;6.354;2023-10-08T05:02:11;72.85;;;69.60;;
38113;SDS011;23926;53.222;6.354;2023-10-08T05:04:52;24.30;;;23.10;;
38113;SDS011;23926;53.222;6.354;2023-10-08T05:07:20;17.98;;;16.73;;
38113;SDS011;23926;53.222;6.354;2023-10-08T05:09:52;7.57;;;7.07;;
38113;SDS011;23926;53.222;6.354;2023-10-08T05:12:33;4.05;;;3.65;;
38113;SDS011;23926;53.222;6.354;2023-10-08T05:15:02;14.77;;;13.93;;
38113;SDS011;23926;53.222;6.354;2023-10-08T05:17:54;6.40;;;5.90;;
38113;SDS011;23926;53.222;6.354;2023-10-08T05:20:33;10.30;;;9.68;;
38113;SDS011;23926;53.222;6.354;2023-10-08T05:23:14;35.92;;;34.08;;
38113;SDS011;23926;53.222;6.354;2023-10-08T05:25:51;74.53;;;71.05;;
38113;SDS011;23926;53.222;6.354;2023-10-08T05:28:30;75.05;;;71.18;;
38113;SDS011;23926;53.222;6.354;2023-10-08T05:31:06;79.13;;;75.32;;
38113;SDS011;23926;53.222;6.354;2023-10-08T05:33:58;63.60;;;60.40;;
38113;SDS011;23926;53.222;6.354;2023-10-08T05:36:47;131.60;;;125.15;;
38113;SDS011;23926;53.222;6.354;2023-10-08T05:39:36;143.25;;;136.27;;
38113;SDS011;23926;53.222;6.354;2023-10-08T05:42:07;132.95;;;126.63;;
38113;SDS011;23926;53.222;6.354;2023-10-08T05:44:41;107.40;;;102.25;;
38113;SDS011;23926;53.222;6.354;2023-10-08T05:47:31;101.70;;;96.80;;
38113;SDS011;23926;53.222;6.354;2023-10-08T05:49:57;93.82;;;89.63;;
38113;SDS011;23926;53.222;6.354;2023-10-08T05:52:44;45.67;;;43.35;;
38113;SDS011;23926;53.222;6.354;2023-10-08T05:55:22;36.22;;;34.13;;
38113;SDS011;23926;53.222;6.354;2023-10-08T05:58:04;50.55;;;48.30;;
38113;SDS011;23926;53.222;6.354;2023-10-08T06:00:43;100.07;;;94.13;;
38113;SDS011;23926;53.222;6.354;2023-10-08T06:03:19;129.38;;;122.97;;
38113;SDS011;23926;53.222;6.354;2023-10-08T06:06:01;111.85;;;106.45;;
38113;SDS011;23926;53.222;6.354;2023-10-08T06:08:39;118.88;;;113.18;;
38113;SDS011;23926;53.222;6.354;2023-10-08T06:11:32;93.93;;;88.93;;
38113;SDS011;23926;53.222;6.354;2023-10-08T06:14:06;77.15;;;73.32;;
38113;SDS011;23926;53.222;6.354;2023-10-08T06:16:42;117.38;;;111.50;;
38113;SDS011;23926;53.222;6.354;2023-10-08T06:19:09;71.90;;;68.25;;
38113;SDS011;23926;53.222;6.354;2023-10-08T06:21:39;31.10;;;29.45;;
38113;SDS011;23926;53.222;6.354;2023-10-08T06:24:06;67.93;;;64.10;;
38113;SDS011;23926;53.222;6.354;2023-10-08T06:26:37;79.75;;;75.80;;
38113;SDS011;23926;53.222;6.354;2023-10-08T06:29:13;85.32;;;81.43;;
38113;SDS011;23926;53.222;6.354;2023-10-08T06:31:59;82.90;;;78.70;;
38113;SDS011;23926;53.222;6.354;2023-10-08T06:34:28;93.13;;;88.10;;
38113;SDS011;23926;53.222;6.354;2023-10-08T06:36:54;74.57;;;70.57;;
38113;SDS011;23926;53.222;6.354;2023-10-08T06:39:21;60.10;;;57.38;;
38113;SDS011;23926;53.222;6.354;2023-10-08T06:41:58;30.13;;;28.40;;
38113;SDS011;23926;53.222;6.354;2023-10-08T06:44:24;32.75;;;31.05;;
38113;SDS011;23926;53.222;6.354;2023-10-08T06:46:51;60.20;;;57.25;;
38113;SDS011;23926;53.222;6.354;2023-10-08T06:49:23;67.30;;;64.00;;
38113;SDS011;23926;53.222;6.354;2023-10-08T06:51:49;98.65;;;93.68;;
38113;SDS011;23926;53.222;6.354;2023-10-08T06:54:16;99.70;;;95.05;;
38113;SDS011;23926;53.222;6.354;2023-10-08T06:56:44;71.57;;;68.15;;
38113;SDS011;23926;53.222;6.354;2023-10-08T06:59:16;61.33;;;58.40;;
38113;SDS011;23926;53.222;6.354;2023-10-08T07:01:42;79.50;;;75.50;;
38113;SDS011;23926;53.222;6.354;2023-10-08T07:04:11;58.13;;;55.33;;
38113;SDS011;23926;53.222;6.354;2023-10-08T07:06:38;69.93;;;66.70;;
38113;SDS011;23926;53.222;6.354;2023-10-08T07:09:05;69.25;;;65.20;;
38113;SDS011;23926;53.222;6.354;2023-10-08T07:11:34;82.40;;;78.25;;
38113;SDS011;23926;53.222;6.354;2023-10-08T07:14:03;21.15;;;20.08;;
38113;SDS011;23926;53.222;6.354;2023-10-08T07:16:32;14.10;;;13.20;;
38113;SDS011;23926;53.222;6.354;2023-10-08T07:18:59;7.13;;;6.38;;
38113;SDS011;23926;53.222;6.354;2023-10-08T07:21:30;6.70;;;6.18;;
38113;SDS011;23926;53.222;6.354;2023-10-08T07:24:10;23.40;;;22.05;;
38113;SDS011;23926;53.222;6.354;2023-10-08T07:26:47;14.07;;;13.30;;
38113;SDS011;23926;53.222;6.354;2023-10-08T07:29:14;50.55;;;48.15;;
38113;SDS011;23926;53.222;6.354;2023-10-08T07:31:44;49.78;;;47.45;;
38113;SDS011;23926;53.222;6.354;2023-10-08T07:34:18;41.17;;;38.22;;
38113;SDS011;23926;53.222;6.354;2023-10-08T07:36:50;9.27;;;5.13;;
38113;SDS011;23926;53.222;6.354;2023-10-08T07:39:18;3.08;;;2.33;;
38113;SDS011;23926;53.222;6.354;2023-10-08T07:41:55;5.63;;;4.85;;
38113;SDS011;23926;53.222;6.354;2023-10-08T07:44:21;18.70;;;17.70;;
38113;SDS011;23926;53.222;6.354;2023-10-08T07:46:48;21.35;;;20.23;;
38113;SDS011;23926;53.222;6.354;2023-10-08T07:49:14;3.00;;;2.90;;
38113;SDS011;23926;53.222;6.354;2023-10-08T07:51:40;8.38;;;7.95;;
38113;SDS011;23926;53.222;6.354;2023-10-08T07:54:06;4.60;;;3.53;;
38113;SDS011;23926;53.222;6.354;2023-10-08T07:56:35;8.07;;;7.32;;
38113;SDS011;23926;53.222;6.354;2023-10-08T07:59:02;8.93;;;8.15;;
38113;SDS011;23926;53.222;6.354;2023-10-08T08:01:33;5.10;;;4.55;;
38113;SDS011;23926;53.222;6.354;2023-10-08T08:03:59;5.03;;;4.72;;
38113;SDS011;23926;53.222;6.354;2023-10-08T08:06:25;13.32;;;12.52;;
38113;SDS011;23926;53.222;6.354;2023-10-08T08:08:51;8.98;;;8.35;;
38113;SDS011;23926;53.222;6.354;2023-10-08T08:11:16;30.45;;;28.35;;
38113;SDS011;23926;53.222;6.354;2023-10-08T08:13:49;39.60;;;37.58;;
38113;SDS011;23926;53.222;6.354;2023-10-08T08:16:15;12.02;;;10.95;;
38113;SDS011;23926;53.222;6.354;2023-10-08T08:18:49;6.38;;;1.73;;
38113;SDS011;23926;53.222;6.354;2023-10-08T08:21:17;3.65;;;2.28;;
38113;SDS011;23926;53.222;6.354;2023-10-08T08:23:47;5.45;;;3.40;;
38113;SDS011;23926;53.222;6.354;2023-10-08T08:26:23;16.73;;;15.85;;
38113;SDS011;23926;53.222;6.354;2023-10-08T08:28:53;4.43;;;3.35;;
38113;SDS011;23926;53.222;6.354;2023-10-08T08:31:22;3.22;;;1.52;;
38113;SDS011;23926;53.222;6.354;2023-10-08T08:33:49;3.28;;;1.50;;
38113;SDS011;23926;53.222;6.354;2023-10-08T08:36:28;6.18;;;1.48;;
38113;SDS011;23926;53.222;6.354;2023-10-08T08:38:57;1.48;;;1.38;;
38113;SDS011;23926;53.222;6.354;2023-10-08T08:41:23;4.25;;;1.42;;
38113;SDS011;23926;53.222;6.354;2023-10-08T08:43:52;3.10;;;1.70;;
38113;SDS011;23926;53.222;6.354;2023-10-08T08:46:30;3.08;;;2.63;;
38113;SDS011;23926;53.222;6.354;2023-10-08T08:49:00;2.08;;;1.88;;
38113;SDS011;23926;53.222;6.354;2023-10-08T08:51:36;3.38;;;1.23;;
38113;SDS011;23926;53.222;6.354;2023-10-08T08:54:03;2.17;;;1.30;;
38113;SDS011;23926;53.222;6.354;2023-10-08T08:56:35;4.60;;;1.70;;
38113;SDS011;23926;53.222;6.354;2023-10-08T08:59:04;4.82;;;1.98;;
38113;SDS011;23926;53.222;6.354;2023-10-08T09:01:30;3.88;;;1.50;;
38113;SDS011;23926;53.222;6.354;2023-10-08T09:04:01;8.55;;;1.65;;
38113;SDS011;23926;53.222;6.354;2023-10-08T09:06:30;4.20;;;1.98;;
38113;SDS011;23926;53.222;6.354;2023-10-08T09:09:06;2.83;;;1.52;;
38113;SDS011;23926;53.222;6.354;2023-10-08T09:11:47;2.30;;;1.48;;
38113;SDS011;23926;53.222;6.354;2023-10-08T09:14:16;6.93;;;1.85;;
38113;SDS011;23926;53.222;6.354;2023-10-08T09:16:45;0.57;;;0.55;;
38113;SDS011;23926;53.222;6.354;2023-10-08T09:19:12;4.82;;;1.77;;
38113;SDS011;23926;53.222;6.354;2023-10-08T09:21:43;4.95;;;2.10;;
38113;SDS011;23926;53.222;6.354;2023-10-08T09:24:09;3.72;;;1.90;;
38113;SDS011;23926;53.222;6.354;2023-10-08T09:26:36;7.10;;;0.93;;
38113;SDS011;23926;53.222;6.354;2023-10-08T09:29:04;4.88;;;1.38;;
38113;SDS011;23926;53.222;6.354;2023-10-08T09:31:30;3.50;;;1.75;;
38113;SDS011;23926;53.222;6.354;2023-10-08T09:34:00;4.88;;;1.60;;
38113;SDS011;23926;53.222;6.354;2023-10-08T09:36:28;13.75;;;1.85;;
38113;SDS011;23926;53.222;6.354;2023-10-08T09:39:03;2.22;;;1.60;;
38113;SDS011;23926;53.222;6.354;2023-10-08T09:41:32;2.13;;;1.20;;
38113;SDS011;23926;53.222;6.354;2023-10-08T09:44:00;2.25;;;1.40;;
38113;SDS011;23926;53.222;6.354;2023-10-08T09:46:30;2.75;;;1.55;;
38113;SDS011;23926;53.222;6.354;2023-10-08T09:49:01;6.68;;;1.63;;
38113;SDS011;23926;53.222;6.354;2023-10-08T09:51:31;10.73;;;1.88;;
38113;SDS011;23926;53.222;6.354;2023-10-08T09:54:11;5.72;;;1.52;;
38113;SDS011;23926;53.222;6.354;2023-10-08T09:56:58;0.80;;;0.50;;
38113;SDS011;23926;53.222;6.354;2023-10-08T09:59:27;1.35;;;0.93;;
38113;SDS011;23926;53.222;6.354;2023-10-08T10:01:54;5.30;;;1.67;;
38113;SDS011;23926;53.222;6.354;2023-10-08T10:04:24;1.25;;;1.02;;
38113;SDS011;23926;53.222;6.354;2023-10-08T10:06:50;4.63;;;1.17;;
38113;SDS011;23926;53.222;6.354;2023-10-08T10:09:25;19.58;;;1.20;;
38113;SDS011;23926;53.222;6.354;2023-10-08T10:11:51;2.78;;;2.05;;
38113;SDS011;23926;53.222;6.354;2023-10-08T10:14:21;0.65;;;0.65;;
38113;SDS011;23926;53.222;6.354;2023-10-08T10:19:35;4.10;;;1.70;;
38113;SDS011;23926;53.222;6.354;2023-10-08T10:22:01;5.95;;;1.85;;
38113;SDS011;23926;53.222;6.354;2023-10-08T10:24:32;4.22;;;1.58;;
38113;SDS011;23926;53.222;6.354;2023-10-08T10:27:13;3.03;;;1.55;;
38113;SDS011;23926;53.222;6.354;2023-10-08T10:29:43;5.18;;;1.92;;
38113;SDS011;23926;53.222;6.354;2023-10-08T10:32:12;2.97;;;1.63;;
38113;SDS011;23926;53.222;6.354;2023-10-08T10:34:40;3.95;;;1.50;;
38113;SDS011;23926;53.222;6.354;2023-10-08T10:37:07;7.20;;;2.08;;
38113;SDS011;23926;53.222;6.354;2023-10-08T10:39:54;5.88;;;1.63;;
38113;SDS011;23926;53.222;6.354;2023-10-08T10:42:26;3.83;;;1.52;;
38113;SDS011;23926;53.222;6.354;2023-10-08T10:44:54;2.83;;;1.15;;
38113;SDS011;23926;53.222;6.354;2023-10-08T10:47:21;3.28;;;1.75;;
38113;SDS011;23926;53.222;6.354;2023-10-08T10:49:51;3.38;;;1.67;;
38113;SDS011;23926;53.222;6.354;2023-10-08T10:52:40;3.50;;;1.42;;
38113;SDS011;23926;53.222;6.354;2023-10-08T10:55:18;7.97;;;1.48;;
38113;SDS011;23926;53.222;6.354;2023-10-08T10:57:47;2.60;;;1.33;;
38113;SDS011;23926;53.222;6.354;2023-10-08T11:00:24;2.08;;;1.27;;
38113;SDS011;23926;53.222;6.354;2023-10-08T11:02:57;3.15;;;1.70;;
38113;SDS011;23926;53.222;6.354;2023-10-08T11:05:40;2.00;;;1.50;;
38113;SDS011;23926;53.222;6.354;2023-10-08T11:08:12;1.27;;;1.17;;
38113;SDS011;23926;53.222;6.354;2023-10-08T11:10:39;4.38;;;1.92;;
38113;SDS011;23926;53.222;6.354;2023-10-08T11:13:12;8.25;;;1.80;;
38113;SDS011;23926;53.222;6.354;2023-10-08T11:15:40;7.05;;;1.30;;
38113;SDS011;23926;53.222;6.354;2023-10-08T11:18:08;3.20;;;1.50;;
38113;SDS011;23926;53.222;6.354;2023-10-08T11:20:35;4.55;;;1.60;;
38113;SDS011;23926;53.222;6.354;2023-10-08T11:23:08;1.33;;;0.75;;
38113;SDS011;23926;53.222;6.354;2023-10-08T11:25:52;2.92;;;1.15;;
38113;SDS011;23926;53.222;6.354;2023-10-08T11:28:27;2.45;;;1.27;;
38113;SDS011;23926;53.222;6.354;2023-10-08T11:30:53;3.28;;;1.00;;
38113;SDS011;23926;53.222;6.354;2023-10-08T11:33:19;7.10;;;1.67;;
38113;SDS011;23926;53.222;6.354;2023-10-08T11:35:57;3.70;;;1.33;;
38113;SDS011;23926;53.222;6.354;2023-10-08T11:38:26;5.78;;;1.33;;
38113;SDS011;23926;53.222;6.354;2023-10-08T11:40:52;1.73;;;0.98;;
38113;SDS011;23926;53.222;6.354;2023-10-08T11:43:24;2.45;;;1.02;;
38113;SDS011;23926;53.222;6.354;2023-10-08T11:45:50;4.35;;;2.20;;
38113;SDS011;23926;53.222;6.354;2023-10-08T11:48:17;1.80;;;1.00;;
38113;SDS011;23926;53.222;6.354;2023-10-08T11:50:47;2.08;;;1.02;;
38113;SDS011;23926;53.222;6.354;2023-10-08T11:53:15;2.63;;;1.70;;
38113;SDS011;23926;53.222;6.354;2023-10-08T11:55:42;2.88;;;1.45;;
38113;SDS011;23926;53.222;6.354;2023-10-08T11:58:07;1.58;;;1.08;;
38113;SDS011;23926;53.222;6.354;2023-10-08T12:00:40;2.05;;;1.00;;
38113;SDS011;23926;53.222;6.354;2023-10-08T12:03:13;1.53;;;1.00;;
38113;SDS011;23926;53.222;6.354;2023-10-08T12:05:43;10.00;;;1.83;;
38113;SDS011;23926;53.222;6.354;2023-10-08T12:08:15;4.43;;;1.38;;
38113;SDS011;23926;53.222;6.354;2023-10-08T12:10:45;2.15;;;1.23;;
38113;SDS011;23926;53.222;6.354;2023-10-08T12:13:13;1.63;;;1.23;;
38113;SDS011;23926;53.222;6.354;2023-10-08T12:15:41;2.72;;;1.15;;
38113;SDS011;23926;53.222;6.354;2023-10-08T12:18:09;3.20;;;1.15;;
38113;SDS011;23926;53.222;6.354;2023-10-08T12:20:51;2.10;;;1.23;;
38113;SDS011;23926;53.222;6.354;2023-10-08T12:23:19;12.10;;;1.90;;
38113;SDS011;23926;53.222;6.354;2023-10-08T12:25:57;4.35;;;1.55;;
38113;SDS011;23926;53.222;6.354;2023-10-08T12:28:23;2.22;;;1.25;;
38113;SDS011;23926;53.222;6.354;2023-10-08T12:30:49;3.42;;;1.90;;
38113;SDS011;23926;53.222;6.354;2023-10-08T12:33:20;2.25;;;1.17;;
38113;SDS011;23926;53.222;6.354;2023-10-08T12:35:47;6.38;;;1.50;;
38113;SDS011;23926;53.222;6.354;2023-10-08T12:38:13;8.35;;;1.70;;
38113;SDS011;23926;53.222;6.354;2023-10-08T12:40:42;2.47;;;1.42;;
38113;SDS011;23926;53.222;6.354;2023-10-08T12:43:12;1.52;;;1.00;;
38113;SDS011;23926;53.222;6.354;2023-10-08T12:45:38;5.95;;;2.08;;
38113;SDS011;23926;53.222;6.354;2023-10-08T12:48:03;4.05;;;1.40;;
38113;SDS011;23926;53.222;6.354;2023-10-08T12:50:30;4.15;;;1.40;;
38113;SDS011;23926;53.222;6.354;2023-10-08T12:53:08;1.05;;;0.82;;
38113;SDS011;23926;53.222;6.354;2023-10-08T12:55:36;8.52;;;1.73;;
38113;SDS011;23926;53.222;6.354;2023-10-08T12:58:05;7.07;;;1.50;;
38113;SDS011;23926;53.222;6.354;2023-10-08T13:00:37;6.93;;;1.75;;
38113;SDS011;23926;53.222;6.354;2023-10-08T13:03:03;4.18;;;1.42;;
38113;SDS011;23926;53.222;6.354;2023-10-08T13:05:32;2.10;;;1.17;;
38113;SDS011;23926;53.222;6.354;2023-10-08T13:07:59;3.67;;;1.30;;
38113;SDS011;23926;53.222;6.354;2023-10-08T13:10:34;11.82;;;1.90;;
38113;SDS011;23926;53.222;6.354;2023-10-08T13:13:00;2.95;;;1.35;;
38113;SDS011;23926;53.222;6.354;2023-10-08T13:15:26;3.60;;;1.45;;
38113;SDS011;23926;53.222;6.354;2023-10-08T13:17:51;2.85;;;1.67;;
38113;SDS011;23926;53.222;6.354;2023-10-08T13:20:17;11.57;;;1.83;;
38113;SDS011;23926;53.222;6.354;2023-10-08T13:22:43;3.03;;;1.25;;
38113;SDS011;23926;53.222;6.354;2023-10-08T13:25:09;4.43;;;1.48;;
38113;SDS011;23926;53.222;6.354;2023-10-08T13:27:37;3.60;;;2.08;;
38113;SDS011;23926;53.222;6.354;2023-10-08T13:30:07;4.68;;;1.75;;
38113;SDS011;23926;53.222;6.354;2023-10-08T13:32:36;6.22;;;1.52;;
38113;SDS011;23926;53.222;6.354;2023-10-08T13:35:04;9.40;;;1.90;;
38113;SDS011;23926;53.222;6.354;2023-10-08T13:37:36;7.65;;;1.77;;
38113;SDS011;23926;53.222;6.354;2023-10-08T13:40:02;6.13;;;1.23;;
38113;SDS011;23926;53.222;6.354;2023-10-08T13:42:27;2.65;;;1.30;;
38113;SDS011;23926;53.222;6.354;2023-10-08T13:44:54;2.75;;;1.08;;
38113;SDS011;23926;53.222;6.354;2023-10-08T13:47:20;1.35;;;1.15;;
38113;SDS011;23926;53.222;6.354;2023-10-08T13:49:49;1.67;;;1.42;;
38113;SDS011;23926;53.222;6.354;2023-10-08T13:52:15;2.10;;;1.50;;
38113;SDS011;23926;53.222;6.354;2023-10-08T13:54:42;2.08;;;1.05;;
38113;SDS011;23926;53.222;6.354;2023-10-08T13:57:15;1.52;;;1.17;;
38113;SDS011;23926;53.222;6.354;2023-10-08T13:59:43;3.88;;;1.67;;
38113;SDS011;23926;53.222;6.354;2023-10-08T14:02:09;2.83;;;1.27;;
38113;SDS011;23926;53.222;6.354;2023-10-08T14:04:44;1.70;;;0.93;;
38113;SDS011;23926;53.222;6.354;2023-10-08T14:07:10;2.15;;;1.10;;
38113;SDS011;23926;53.222;6.354;2023-10-08T14:09:45;5.70;;;2.27;;
38113;SDS011;23926;53.222;6.354;2023-10-08T14:12:11;3.03;;;1.20;;
38113;SDS011;23926;53.222;6.354;2023-10-08T14:14:39;1.77;;;0.98;;
38113;SDS011;23926;53.222;6.354;2023-10-08T14:17:11;1.17;;;0.90;;
38113;SDS011;23926;53.222;6.354;2023-10-08T14:19:41;2.75;;;1.38;;
38113;SDS011;23926;53.222;6.354;2023-10-08T14:22:24;2.78;;;1.50;;
38113;SDS011;23926;53.222;6.354;2023-10-08T14:24:50;5.18;;;1.27;;
38113;SDS011;23926;53.222;6.354;2023-10-08T14:27:27;3.78;;;1.38;;
38113;SDS011;23926;53.222;6.354;2023-10-08T14:29:57;1.60;;;1.25;;
38113;SDS011;23926;53.222;6.354;2023-10-08T14:32:26;3.67;;;1.40;;
38113;SDS011;23926;53.222;6.354;2023-10-08T14:34:52;1.02;;;0.98;;
38113;SDS011;23926;53.222;6.354;2023-10-08T14:37:21;3.40;;;1.20;;
38113;SDS011;23926;53.222;6.354;2023-10-08T14:40:06;2.22;;;1.30;;
38113;SDS011;23926;53.222;6.354;2023-10-08T14:42:50;1.75;;;1.15;;
38113;SDS011;23926;53.222;6.354;2023-10-08T14:45:22;2.08;;;1.25;;
38113;SDS011;23926;53.222;6.354;2023-10-08T14:47:51;1.95;;;0.77;;
38113;SDS011;23926;53.222;6.354;2023-10-08T14:50:18;7.28;;;1.23;;
38113;SDS011;23926;53.222;6.354;2023-10-08T14:52:44;2.13;;;1.30;;
38113;SDS011;23926;53.222;6.354;2023-10-08T14:55:09;2.75;;;1.25;;